sensor_id;sensor_type;location;lat;lon;timestamp;temperature;humidity
21318;DHT22;10818;50.830;6.524;2022-09-12T00:02:54;14.20;99.90
21318;DHT22;10818;50.830;6.524;2022-09-12T00:07:55;14.20;99.90
21318;DHT22;10818;50.830;6.524;2022-09-12T00:12:56;14.20;99.90
21318;DHT22;10818;50.830;6.524;2022-09-12T00:17:56;14.10;99.90
21318;DHT22;10818;50.830;6.524;2022-09-12T00:22:57;14.10;99.90
21318;DHT22;10818;50.830;6.524;2022-09-12T00:27:57;14.10;99.90
21318;DHT22;10818;50.830;6.524;2022-09-12T00:32:58;14.10;99.90
21318;DHT22;10818;50.830;6.524;2022-09-12T00:37:59;14.10;99.90
21318;DHT22;10818;50.830;6.524;2022-09-12T00:42:59;14.10;99.90
21318;DHT22;10818;50.830;6.524;2022-09-12T00:48:01;14.00;99.90
21318;DHT22;10818;50.830;6.524;2022-09-12T00:53:06;14.00;99.90
21318;DHT22;10818;50.830;6.524;2022-09-12T00:58:26;13.90;99.90
21318;DHT22;10818;50.830;6.524;2022-09-12T01:03:28;13.80;99.90
21318;DHT22;10818;50.830;6.524;2022-09-12T01:08:28;13.80;99.90
21318;DHT22;10818;50.830;6.524;2022-09-12T01:13:31;13.70;99.90
21318;DHT22;10818;50.830;6.524;2022-09-12T01:18:57;13.70;99.90
21318;DHT22;10818;50.830;6.524;2022-09-12T01:29:31;13.70;99.90
21318;DHT22;10818;50.830;6.524;2022-09-12T01:34:49;13.70;99.90
21318;DHT22;10818;50.830;6.524;2022-09-12T01:40:19;13.70;99.90
21318;DHT22;10818;50.830;6.524;2022-09-12T01:45:43;13.70;99.90
21318;DHT22;10818;50.830;6.524;2022-09-12T01:51:09;13.90;99.90
21318;DHT22;10818;50.830;6.524;2022-09-12T01:56:19;13.90;99.90
21318;DHT22;10818;50.830;6.524;2022-09-12T02:01:30;13.80;99.90
21318;DHT22;10818;50.830;6.524;2022-09-12T02:06:39;13.80;99.90
21318;DHT22;10818;50.830;6.524;2022-09-12T02:11:43;13.70;99.90
21318;DHT22;10818;50.830;6.524;2022-09-12T02:16:50;13.70;99.90
21318;DHT22;10818;50.830;6.524;2022-09-12T02:21:55;13.70;99.90
21318;DHT22;10818;50.830;6.524;2022-09-12T02:27:34;13.70;99.90
21318;DHT22;10818;50.830;6.524;2022-09-12T02:32:35;13.60;99.90
21318;DHT22;10818;50.830;6.524;2022-09-12T02:37:42;13.70;99.90
21318;DHT22;10818;50.830;6.524;2022-09-12T02:42:45;13.70;99.90
21318;DHT22;10818;50.830;6.524;2022-09-12T02:53:03;13.70;99.90
21318;DHT22;10818;50.830;6.524;2022-09-12T02:58:12;13.80;99.90
21318;DHT22;10818;50.830;6.524;2022-09-12T03:09:09;13.60;99.90
21318;DHT22;10818;50.830;6.524;2022-09-12T03:24:37;13.40;99.90
21318;DHT22;10818;50.830;6.524;2022-09-12T03:29:41;13.30;99.90
21318;DHT22;10818;50.830;6.524;2022-09-12T03:34:42;13.30;99.90
21318;DHT22;10818;50.830;6.524;2022-09-12T03:39:43;13.30;99.90
21318;DHT22;10818;50.830;6.524;2022-09-12T03:44:43;13.40;99.90
21318;DHT22;10818;50.830;6.524;2022-09-12T03:49:44;13.50;99.90
21318;DHT22;10818;50.830;6.524;2022-09-12T03:54:45;13.50;99.90
21318;DHT22;10818;50.830;6.524;2022-09-12T03:59:48;13.50;99.90
21318;DHT22;10818;50.830;6.524;2022-09-12T04:04:49;13.30;99.90
21318;DHT22;10818;50.830;6.524;2022-09-12T04:09:49;13.20;99.90
21318;DHT22;10818;50.830;6.524;2022-09-12T04:14:50;13.20;99.90
21318;DHT22;10818;50.830;6.524;2022-09-12T04:19:50;13.10;99.90
21318;DHT22;10818;50.830;6.524;2022-09-12T04:24:51;13.10;99.90
21318;DHT22;10818;50.830;6.524;2022-09-12T04:29:51;13.00;99.90
21318;DHT22;10818;50.830;6.524;2022-09-12T04:34:54;13.00;99.90
21318;DHT22;10818;50.830;6.524;2022-09-12T04:39:54;13.00;99.90
21318;DHT22;10818;50.830;6.524;2022-09-12T04:44:57;13.00;99.90
21318;DHT22;10818;50.830;6.524;2022-09-12T04:49:57;13.20;99.90
21318;DHT22;10818;50.830;6.524;2022-09-12T04:54:58;13.30;99.90
21318;DHT22;10818;50.830;6.524;2022-09-12T04:59:58;13.40;99.90
21318;DHT22;10818;50.830;6.524;2022-09-12T05:04:59;13.50;99.90
21318;DHT22;10818;50.830;6.524;2022-09-12T05:09:59;13.50;99.90
21318;DHT22;10818;50.830;6.524;2022-09-12T05:15:00;13.70;99.90
21318;DHT22;10818;50.830;6.524;2022-09-12T05:20:01;13.80;99.90
21318;DHT22;10818;50.830;6.524;2022-09-12T05:25:01;13.90;99.90
21318;DHT22;10818;50.830;6.524;2022-09-12T05:30:02;14.00;99.90
21318;DHT22;10818;50.830;6.524;2022-09-12T05:35:03;14.20;99.90
21318;DHT22;10818;50.830;6.524;2022-09-12T05:40:03;14.40;99.90
21318;DHT22;10818;50.830;6.524;2022-09-12T05:45:06;14.60;99.90
21318;DHT22;10818;50.830;6.524;2022-09-12T05:50:08;14.90;99.90
21318;DHT22;10818;50.830;6.524;2022-09-12T05:55:10;15.10;99.90
21318;DHT22;10818;50.830;6.524;2022-09-12T06:00:11;15.20;99.90
21318;DHT22;10818;50.830;6.524;2022-09-12T06:05:12;15.30;99.90
21318;DHT22;10818;50.830;6.524;2022-09-12T06:10:12;15.40;99.90
21318;DHT22;10818;50.830;6.524;2022-09-12T06:15:13;15.70;99.90
21318;DHT22;10818;50.830;6.524;2022-09-12T06:20:15;15.90;99.90
21318;DHT22;10818;50.830;6.524;2022-09-12T06:25:17;16.00;99.90
21318;DHT22;10818;50.830;6.524;2022-09-12T06:30:17;16.40;99.90
21318;DHT22;10818;50.830;6.524;2022-09-12T06:35:18;16.70;99.90
21318;DHT22;10818;50.830;6.524;2022-09-12T06:40:18;17.00;99.90
21318;DHT22;10818;50.830;6.524;2022-09-12T06:45:18;17.40;99.90
21318;DHT22;10818;50.830;6.524;2022-09-12T06:50:20;17.70;99.90
21318;DHT22;10818;50.830;6.524;2022-09-12T06:55:21;18.10;99.90
21318;DHT22;10818;50.830;6.524;2022-09-12T07:00:23;18.30;99.90
21318;DHT22;10818;50.830;6.524;2022-09-12T07:05:23;18.80;99.90
21318;DHT22;10818;50.830;6.524;2022-09-12T07:10:24;19.00;99.90
21318;DHT22;10818;50.830;6.524;2022-09-12T07:15:25;19.10;99.90
21318;DHT22;10818;50.830;6.524;2022-09-12T07:20:26;19.40;99.90
21318;DHT22;10818;50.830;6.524;2022-09-12T07:25:27;20.20;99.90
21318;DHT22;10818;50.830;6.524;2022-09-12T07:30:27;22.30;99.90
21318;DHT22;10818;50.830;6.524;2022-09-12T07:35:30;25.30;99.90
21318;DHT22;10818;50.830;6.524;2022-09-12T07:40:31;28.60;99.90
21318;DHT22;10818;50.830;6.524;2022-09-12T07:45:31;30.10;99.90
21318;DHT22;10818;50.830;6.524;2022-09-12T07:50:32;30.10;99.90
21318;DHT22;10818;50.830;6.524;2022-09-12T07:55:32;30.20;99.20
21318;DHT22;10818;50.830;6.524;2022-09-12T08:00:33;29.70;98.50
21318;DHT22;10818;50.830;6.524;2022-09-12T08:05:35;30.00;99.00
21318;DHT22;10818;50.830;6.524;2022-09-12T08:10:36;29.80;98.10
21318;DHT22;10818;50.830;6.524;2022-09-12T08:15:36;28.60;99.20
21318;DHT22;10818;50.830;6.524;2022-09-12T08:20:37;28.40;99.60
21318;DHT22;10818;50.830;6.524;2022-09-12T08:25:37;27.30;99.90
21318;DHT22;10818;50.830;6.524;2022-09-12T08:30:38;26.70;99.90
21318;DHT22;10818;50.830;6.524;2022-09-12T08:35:38;26.90;99.90
21318;DHT22;10818;50.830;6.524;2022-09-12T08:40:42;28.40;99.90
21318;DHT22;10818;50.830;6.524;2022-09-12T08:45:49;32.50;96.60
21318;DHT22;10818;50.830;6.524;2022-09-12T08:50:53;33.30;92.10
21318;DHT22;10818;50.830;6.524;2022-09-12T08:55:55;30.30;95.30
21318;DHT22;10818;50.830;6.524;2022-09-12T09:01:03;28.10;97.90
21318;DHT22;10818;50.830;6.524;2022-09-12T09:06:16;27.20;99.90
21318;DHT22;10818;50.830;6.524;2022-09-12T09:16:29;26.00;99.90
21318;DHT22;10818;50.830;6.524;2022-09-12T09:21:32;25.80;99.90
21318;DHT22;10818;50.830;6.524;2022-09-12T09:31:50;25.10;99.90
21318;DHT22;10818;50.830;6.524;2022-09-12T09:42:13;25.00;99.90
21318;DHT22;10818;50.830;6.524;2022-09-12T09:47:16;25.10;99.90
21318;DHT22;10818;50.830;6.524;2022-09-12T09:52:20;25.00;99.90
21318;DHT22;10818;50.830;6.524;2022-09-12T10:02:33;25.50;99.90
21318;DHT22;10818;50.830;6.524;2022-09-12T10:07:33;25.20;99.90
21318;DHT22;10818;50.830;6.524;2022-09-12T10:12:34;25.30;99.90
21318;DHT22;10818;50.830;6.524;2022-09-12T10:17:41;25.30;99.90
21318;DHT22;10818;50.830;6.524;2022-09-12T10:22:45;25.30;99.90
21318;DHT22;10818;50.830;6.524;2022-09-12T10:27:51;25.50;99.90
21318;DHT22;10818;50.830;6.524;2022-09-12T10:32:53;25.60;99.90
21318;DHT22;10818;50.830;6.524;2022-09-12T10:42:56;26.00;99.90
21318;DHT22;10818;50.830;6.524;2022-09-12T10:47:58;26.00;99.90
21318;DHT22;10818;50.830;6.524;2022-09-12T10:58:42;26.00;99.90
21318;DHT22;10818;50.830;6.524;2022-09-12T11:25:07;26.00;99.70
21318;DHT22;10818;50.830;6.524;2022-09-12T11:30:12;26.20;99.90
21318;DHT22;10818;50.830;6.524;2022-09-12T12:17:58;26.80;93.90
21318;DHT22;10818;50.830;6.524;2022-09-12T12:22:59;27.00;93.80
21318;DHT22;10818;50.830;6.524;2022-09-12T12:28:00;26.80;92.70
21318;DHT22;10818;50.830;6.524;2022-09-12T12:33:03;26.80;93.20
21318;DHT22;10818;50.830;6.524;2022-09-12T12:59:26;26.70;91.60
21318;DHT22;10818;50.830;6.524;2022-09-12T13:04:28;27.00;92.10
21318;DHT22;10818;50.830;6.524;2022-09-12T13:09:33;27.10;91.40
21318;DHT22;10818;50.830;6.524;2022-09-12T13:19:54;27.20;91.20
21318;DHT22;10818;50.830;6.524;2022-09-12T13:25:01;27.20;91.70
21318;DHT22;10818;50.830;6.524;2022-09-12T13:30:07;27.40;91.40
21318;DHT22;10818;50.830;6.524;2022-09-12T13:40:26;27.50;91.80
21318;DHT22;10818;50.830;6.524;2022-09-12T13:45:31;27.70;91.60
21318;DHT22;10818;50.830;6.524;2022-09-12T13:50:49;27.80;91.10
21318;DHT22;10818;50.830;6.524;2022-09-12T13:55:57;27.70;91.80
21318;DHT22;10818;50.830;6.524;2022-09-12T14:01:06;27.70;90.90
21318;DHT22;10818;50.830;6.524;2022-09-12T14:06:07;27.90;91.40
21318;DHT22;10818;50.830;6.524;2022-09-12T14:11:08;27.90;91.00
21318;DHT22;10818;50.830;6.524;2022-09-12T14:16:10;27.80;91.20
21318;DHT22;10818;50.830;6.524;2022-09-12T14:21:19;27.70;90.50
21318;DHT22;10818;50.830;6.524;2022-09-12T14:26:23;27.90;90.70
21318;DHT22;10818;50.830;6.524;2022-09-12T14:31:28;28.00;90.00
21318;DHT22;10818;50.830;6.524;2022-09-12T14:41:30;27.60;90.80
21318;DHT22;10818;50.830;6.524;2022-09-12T14:46:35;27.60;90.40
21318;DHT22;10818;50.830;6.524;2022-09-12T14:51:37;27.70;90.90
21318;DHT22;10818;50.830;6.524;2022-09-12T14:56:42;27.70;90.00
21318;DHT22;10818;50.830;6.524;2022-09-12T15:01:43;27.90;89.20
21318;DHT22;10818;50.830;6.524;2022-09-12T15:06:43;28.00;88.40
21318;DHT22;10818;50.830;6.524;2022-09-12T15:11:44;27.90;87.80
21318;DHT22;10818;50.830;6.524;2022-09-12T15:16:44;27.90;86.90
21318;DHT22;10818;50.830;6.524;2022-09-12T15:21:45;28.00;85.80
21318;DHT22;10818;50.830;6.524;2022-09-12T15:26:45;27.80;86.90
21318;DHT22;10818;50.830;6.524;2022-09-12T15:31:46;28.10;89.70
21318;DHT22;10818;50.830;6.524;2022-09-12T15:36:49;28.00;88.80
21318;DHT22;10818;50.830;6.524;2022-09-12T15:41:50;27.90;89.20
21318;DHT22;10818;50.830;6.524;2022-09-12T15:46:50;27.70;89.30
21318;DHT22;10818;50.830;6.524;2022-09-12T15:51:51;27.60;89.80
21318;DHT22;10818;50.830;6.524;2022-09-12T15:56:51;27.50;89.70
21318;DHT22;10818;50.830;6.524;2022-09-12T16:01:52;27.40;90.70
21318;DHT22;10818;50.830;6.524;2022-09-12T16:06:53;27.30;90.70
21318;DHT22;10818;50.830;6.524;2022-09-12T16:11:53;27.40;91.00
21318;DHT22;10818;50.830;6.524;2022-09-12T16:16:54;27.40;91.80
21318;DHT22;10818;50.830;6.524;2022-09-12T16:21:55;27.30;91.60
21318;DHT22;10818;50.830;6.524;2022-09-12T16:26:55;27.40;91.10
21318;DHT22;10818;50.830;6.524;2022-09-12T16:31:56;27.40;90.80
21318;DHT22;10818;50.830;6.524;2022-09-12T16:36:56;27.30;90.40
21318;DHT22;10818;50.830;6.524;2022-09-12T16:41:57;27.30;90.20
21318;DHT22;10818;50.830;6.524;2022-09-12T16:46:57;27.10;89.30
21318;DHT22;10818;50.830;6.524;2022-09-12T16:51:58;27.20;90.30
21318;DHT22;10818;50.830;6.524;2022-09-12T16:56:58;27.00;90.30
21318;DHT22;10818;50.830;6.524;2022-09-12T17:01:59;26.80;91.50
21318;DHT22;10818;50.830;6.524;2022-09-12T17:07:00;26.60;91.70
21318;DHT22;10818;50.830;6.524;2022-09-12T17:12:00;26.40;92.20
21318;DHT22;10818;50.830;6.524;2022-09-12T17:17:01;26.10;93.10
21318;DHT22;10818;50.830;6.524;2022-09-12T17:22:02;25.80;93.10
21318;DHT22;10818;50.830;6.524;2022-09-12T17:27:02;25.60;94.60
21318;DHT22;10818;50.830;6.524;2022-09-12T17:32:03;25.30;95.80
21318;DHT22;10818;50.830;6.524;2022-09-12T17:37:03;24.80;96.80
21318;DHT22;10818;50.830;6.524;2022-09-12T17:42:04;24.50;98.90
21318;DHT22;10818;50.830;6.524;2022-09-12T17:47:05;24.20;99.90
21318;DHT22;10818;50.830;6.524;2022-09-12T17:52:06;23.80;99.90
21318;DHT22;10818;50.830;6.524;2022-09-12T17:57:07;23.40;99.90
21318;DHT22;10818;50.830;6.524;2022-09-12T18:02:11;23.10;99.90
21318;DHT22;10818;50.830;6.524;2022-09-12T18:07:12;22.90;99.90
21318;DHT22;10818;50.830;6.524;2022-09-12T18:12:13;22.70;99.90
21318;DHT22;10818;50.830;6.524;2022-09-12T18:17:14;22.50;99.90
21318;DHT22;10818;50.830;6.524;2022-09-12T18:22:14;22.30;99.90
21318;DHT22;10818;50.830;6.524;2022-09-12T18:27:15;22.00;99.90
21318;DHT22;10818;50.830;6.524;2022-09-12T18:32:15;21.80;99.90
21318;DHT22;10818;50.830;6.524;2022-09-12T18:37:16;21.50;99.90
21318;DHT22;10818;50.830;6.524;2022-09-12T18:42:16;21.20;99.90
21318;DHT22;10818;50.830;6.524;2022-09-12T18:47:17;21.00;99.90
21318;DHT22;10818;50.830;6.524;2022-09-12T18:52:17;20.80;99.90
21318;DHT22;10818;50.830;6.524;2022-09-12T18:57:18;20.70;99.90
21318;DHT22;10818;50.830;6.524;2022-09-12T19:02:18;20.60;99.90
21318;DHT22;10818;50.830;6.524;2022-09-12T19:07:19;20.50;99.90
21318;DHT22;10818;50.830;6.524;2022-09-12T19:12:19;20.60;99.90
21318;DHT22;10818;50.830;6.524;2022-09-12T19:17:20;20.50;99.90
21318;DHT22;10818;50.830;6.524;2022-09-12T19:22:20;20.40;99.90
21318;DHT22;10818;50.830;6.524;2022-09-12T19:27:21;20.30;99.90
21318;DHT22;10818;50.830;6.524;2022-09-12T19:32:21;20.40;99.90
21318;DHT22;10818;50.830;6.524;2022-09-12T19:37:22;20.40;99.90
21318;DHT22;10818;50.830;6.524;2022-09-12T19:42:23;20.40;99.90
21318;DHT22;10818;50.830;6.524;2022-09-12T19:47:23;20.40;99.90
21318;DHT22;10818;50.830;6.524;2022-09-12T19:52:27;20.20;99.90
21318;DHT22;10818;50.830;6.524;2022-09-12T19:57:28;20.20;99.90
21318;DHT22;10818;50.830;6.524;2022-09-12T20:02:28;20.10;99.90
21318;DHT22;10818;50.830;6.524;2022-09-12T20:07:29;20.10;99.90
21318;DHT22;10818;50.830;6.524;2022-09-12T20:12:29;20.00;99.90
21318;DHT22;10818;50.830;6.524;2022-09-12T20:17:30;20.00;99.90
21318;DHT22;10818;50.830;6.524;2022-09-12T20:22:30;19.80;99.90
21318;DHT22;10818;50.830;6.524;2022-09-12T20:27:31;19.60;99.90
21318;DHT22;10818;50.830;6.524;2022-09-12T20:32:31;19.60;99.90
21318;DHT22;10818;50.830;6.524;2022-09-12T20:37:32;19.50;99.90
21318;DHT22;10818;50.830;6.524;2022-09-12T20:42:32;19.50;99.90
21318;DHT22;10818;50.830;6.524;2022-09-12T20:47:33;19.50;99.90
21318;DHT22;10818;50.830;6.524;2022-09-12T20:52:33;19.50;99.90
21318;DHT22;10818;50.830;6.524;2022-09-12T20:57:34;19.30;99.90
21318;DHT22;10818;50.830;6.524;2022-09-12T21:02:34;19.10;99.90
21318;DHT22;10818;50.830;6.524;2022-09-12T21:07:34;19.10;99.90
21318;DHT22;10818;50.830;6.524;2022-09-12T21:12:35;19.10;99.90
21318;DHT22;10818;50.830;6.524;2022-09-12T21:17:35;19.10;99.90
21318;DHT22;10818;50.830;6.524;2022-09-12T21:22:36;19.20;99.90
21318;DHT22;10818;50.830;6.524;2022-09-12T21:27:36;19.20;99.90
21318;DHT22;10818;50.830;6.524;2022-09-12T21:32:37;19.20;99.90
21318;DHT22;10818;50.830;6.524;2022-09-12T21:37:38;19.10;99.90
21318;DHT22;10818;50.830;6.524;2022-09-12T21:42:38;19.00;99.90
21318;DHT22;10818;50.830;6.524;2022-09-12T21:47:39;18.90;99.90
21318;DHT22;10818;50.830;6.524;2022-09-12T21:52:39;18.80;99.90
21318;DHT22;10818;50.830;6.524;2022-09-12T21:57:40;18.70;99.90
21318;DHT22;10818;50.830;6.524;2022-09-12T22:02:40;18.70;99.90
21318;DHT22;10818;50.830;6.524;2022-09-12T22:07:41;18.70;99.90
21318;DHT22;10818;50.830;6.524;2022-09-12T22:12:41;18.70;99.90
21318;DHT22;10818;50.830;6.524;2022-09-12T22:17:42;18.60;99.90
21318;DHT22;10818;50.830;6.524;2022-09-12T22:22:42;18.50;99.90
21318;DHT22;10818;50.830;6.524;2022-09-12T22:28:01;18.30;99.90
21318;DHT22;10818;50.830;6.524;2022-09-12T22:33:02;18.30;99.90
21318;DHT22;10818;50.830;6.524;2022-09-12T22:38:02;18.30;99.90
21318;DHT22;10818;50.830;6.524;2022-09-12T22:43:03;18.10;99.90
21318;DHT22;10818;50.830;6.524;2022-09-12T22:48:04;18.00;99.90
21318;DHT22;10818;50.830;6.524;2022-09-12T22:53:04;17.90;99.90
21318;DHT22;10818;50.830;6.524;2022-09-12T22:58:04;17.90;99.90
21318;DHT22;10818;50.830;6.524;2022-09-12T23:03:05;17.90;99.90
21318;DHT22;10818;50.830;6.524;2022-09-12T23:08:05;17.60;99.90
21318;DHT22;10818;50.830;6.524;2022-09-12T23:13:06;17.60;99.90
21318;DHT22;10818;50.830;6.524;2022-09-12T23:18:06;17.60;99.90
21318;DHT22;10818;50.830;6.524;2022-09-12T23:23:07;17.50;99.90
21318;DHT22;10818;50.830;6.524;2022-09-12T23:28:08;17.30;99.90
21318;DHT22;10818;50.830;6.524;2022-09-12T23:33:09;17.20;99.90
21318;DHT22;10818;50.830;6.524;2022-09-12T23:38:09;17.10;99.90
21318;DHT22;10818;50.830;6.524;2022-09-12T23:43:10;17.00;99.90
21318;DHT22;10818;50.830;6.524;2022-09-12T23:48:10;17.00;99.90
21318;DHT22;10818;50.830;6.524;2022-09-12T23:53:11;17.10;99.90
21318;DHT22;10818;50.830;6.524;2022-09-12T23:58:12;17.10;99.90
